ORB249 UMMS-USMM
Flight info
| Callsign | ORB249 |
|---|---|
| Flight time | N/A |
| Altitude | 37000 |
| Route | AGNEF2F AGNEF N869 RANTO T753 TUNOB T791 SUBIB/K0915F390 T791 UHT N742 LAGNI G719 OGLES OGLES2P |
| Aircraft | B77W/H-SDE1E2E3FGHIJ2J3J4J5M1RWXY/LB1D1 |
Departure
| Time | 2026-04-29 14:30 |
|---|---|
| Airport | Minsk National Airport (UMMS) |
Arrival
| Time | N/A |
|---|---|
| Airport | Nadym Airport (USMM) |
| Time | Latitude | Longitude | Altitude | Speed | Heading |
|---|---|---|---|---|---|
| 2026-04-29 13:53 | 53.88853 | 28.03239 | 658 ft | 0 kts | 11° |
| 2026-04-29 14:14 | 53.88851 | 28.03238 | 658 ft | 1 kts | 11° |
| 2026-04-29 14:15 | 53.88837 | 28.03233 | 658 ft | 2 kts | 11° |
| 2026-04-29 14:15 | 53.88823 | 28.03226 | 658 ft | 2 kts | 30° |
| 2026-04-29 14:15 | 53.88811 | 28.03211 | 658 ft | 2 kts | 48° |
| 2026-04-29 14:15 | 53.88802 | 28.03190 | 658 ft | 2 kts | 65° |
| 2026-04-29 14:16 | 53.88798 | 28.03167 | 658 ft | 2 kts | 82° |
| 2026-04-29 14:16 | 53.88797 | 28.03141 | 658 ft | 2 kts | 95° |
| 2026-04-29 14:16 | 53.88799 | 28.03116 | 657 ft | 2 kts | 105° |
| 2026-04-29 14:16 | 53.88804 | 28.03093 | 657 ft | 2 kts | 117° |
| 2026-04-29 14:17 | 53.88812 | 28.03071 | 657 ft | 2 kts | 128° |
| 2026-04-29 14:17 | 53.88822 | 28.03053 | 657 ft | 2 kts | 140° |
| 2026-04-29 14:17 | 53.88826 | 28.03047 | 657 ft | 0 kts | 141° |
| 2026-04-29 14:22 | 53.88825 | 28.03048 | 657 ft | 1 kts | 141° |
| 2026-04-29 14:22 | 53.88799 | 28.03084 | 657 ft | 8 kts | 141° |
| 2026-04-29 14:22 | 53.88734 | 28.03175 | 658 ft | 15 kts | 139° |
| 2026-04-29 14:22 | 53.88640 | 28.03316 | 659 ft | 20 kts | 137° |
| 2026-04-29 14:23 | 53.88554 | 28.03452 | 661 ft | 17 kts | 136° |
| 2026-04-29 14:23 | 53.88528 | 28.03525 | 661 ft | 9 kts | 87° |
| 2026-04-29 14:23 | 53.88568 | 28.03636 | 662 ft | 13 kts | 52° |
| 2026-04-29 14:23 | 53.88635 | 28.03770 | 665 ft | 16 kts | 49° |
| 2026-04-29 14:24 | 53.88724 | 28.03939 | 667 ft | 21 kts | 47° |
| 2026-04-29 14:24 | 53.88831 | 28.04145 | 671 ft | 25 kts | 49° |
| 2026-04-29 14:24 | 53.88954 | 28.04380 | 679 ft | 28 kts | 47° |
| 2026-04-29 14:24 | 53.89094 | 28.04639 | 686 ft | 30 kts | 47° |
| 2026-04-29 14:25 | 53.89169 | 28.04777 | 689 ft | 6 kts | 47° |
| 2026-04-29 14:25 | 53.89196 | 28.04853 | 691 ft | 8 kts | 88° |
| 2026-04-29 14:25 | 53.89159 | 28.04959 | 693 ft | 13 kts | 137° |
| 2026-04-29 14:25 | 53.89077 | 28.05084 | 695 ft | 18 kts | 138° |
| 2026-04-29 14:26 | 53.88966 | 28.05246 | 696 ft | 23 kts | 139° |
| 2026-04-29 14:26 | 53.88826 | 28.05452 | 697 ft | 29 kts | 139° |
| 2026-04-29 14:26 | 53.88659 | 28.05701 | 697 ft | 35 kts | 138° |
| 2026-04-29 14:26 | 53.88462 | 28.05990 | 699 ft | 39 kts | 139° |
| 2026-04-29 14:27 | 53.88247 | 28.06316 | 698 ft | 44 kts | 138° |
| 2026-04-29 14:27 | 53.88065 | 28.06589 | 692 ft | 33 kts | 141° |
| 2026-04-29 14:27 | 53.87946 | 28.06833 | 685 ft | 20 kts | 52° |
| 2026-04-29 14:28 | 53.87991 | 28.06904 | 684 ft | 3 kts | 44° |
| 2026-04-29 14:28 | 53.88000 | 28.06918 | 684 ft | 0 kts | 44° |
| 2026-04-29 14:28 | 53.88014 | 28.06938 | 684 ft | 4 kts | 38° |
| 2026-04-29 14:28 | 53.88055 | 28.06962 | 684 ft | 7 kts | 358° |
| 2026-04-29 14:29 | 53.88102 | 28.06918 | 686 ft | 7 kts | 321° |
| 2026-04-29 14:29 | 53.88102 | 28.06917 | 686 ft | 0 kts | 321° |
| 2026-04-29 14:29 | 53.88147 | 28.06853 | 688 ft | 39 kts | 320° |
| 2026-04-29 14:29 | 53.88575 | 28.06225 | 700 ft | 116 kts | 316° |
| 2026-04-29 14:30 | 53.89333 | 28.05054 | 829 ft | 169 kts | 315° |
| 2026-04-29 14:30 | 53.90160 | 28.03485 | 1588 ft | 193 kts | 316° |
| 2026-04-29 14:30 | 53.91122 | 28.02276 | 3157 ft | 170 kts | 327° |
| 2026-04-29 14:30 | 53.92077 | 28.01024 | 3821 ft | 183 kts | 322° |
| 2026-04-29 14:31 | 53.93074 | 27.99547 | 4433 ft | 200 kts | 321° |
| 2026-04-29 14:31 | 53.94150 | 27.97937 | 5093 ft | 216 kts | 321° |
| 2026-04-29 14:31 | 53.95346 | 27.96281 | 5778 ft | 229 kts | 332° |
| 2026-04-29 14:31 | 53.96827 | 27.95482 | 6693 ft | 231 kts | 356° |
| 2026-04-29 14:32 | 53.98410 | 27.95852 | 7591 ft | 236 kts | 17° |
| 2026-04-29 14:32 | 53.99962 | 27.96783 | 8156 ft | 240 kts | 19° |
| 2026-04-29 14:32 | 54.01536 | 27.97800 | 8234 ft | 251 kts | 25° |
| 2026-04-29 14:32 | 54.02916 | 27.99734 | 8855 ft | 268 kts | 48° |
| 2026-04-29 14:33 | 54.04044 | 28.02187 | 9947 ft | 267 kts | 50° |
| 2026-04-29 14:33 | 54.05179 | 28.04717 | 10777 ft | 276 kts | 51° |
| 2026-04-29 14:33 | 54.06372 | 28.07383 | 11387 ft | 293 kts | 51° |
| 2026-04-29 14:33 | 54.07631 | 28.10198 | 12024 ft | 310 kts | 51° |
| 2026-04-29 14:34 | 54.08951 | 28.13155 | 12664 ft | 325 kts | 51° |
| 2026-04-29 14:34 | 54.10352 | 28.16297 | 13327 ft | 340 kts | 51° |
| 2026-04-29 14:34 | 54.11799 | 28.19548 | 14001 ft | 355 kts | 52° |
| 2026-04-29 14:34 | 54.13325 | 28.22982 | 14728 ft | 368 kts | 52° |
| 2026-04-29 14:35 | 54.14864 | 28.26449 | 15545 ft | 377 kts | 52° |
| 2026-04-29 14:35 | 54.16455 | 28.30041 | 16504 ft | 383 kts | 51° |
| 2026-04-29 14:35 | 54.18055 | 28.33658 | 17447 ft | 388 kts | 51° |
| 2026-04-29 14:35 | 54.19671 | 28.37316 | 18359 ft | 393 kts | 51° |
| 2026-04-29 14:36 | 54.21318 | 28.41053 | 19299 ft | 398 kts | 51° |
| 2026-04-29 14:36 | 54.22981 | 28.44827 | 20179 ft | 404 kts | 51° |
| 2026-04-29 14:36 | 54.24680 | 28.48690 | 21017 ft | 411 kts | 51° |
| 2026-04-29 14:36 | 54.26392 | 28.52590 | 21891 ft | 417 kts | 51° |
| 2026-04-29 14:37 | 54.28139 | 28.56576 | 22740 ft | 422 kts | 51° |
| 2026-04-29 14:37 | 54.29901 | 28.60603 | 23535 ft | 428 kts | 51° |
| 2026-04-29 14:37 | 54.31692 | 28.64702 | 24331 ft | 433 kts | 51° |
| 2026-04-29 14:37 | 54.33506 | 28.68860 | 25081 ft | 439 kts | 52° |
| 2026-04-29 14:38 | 54.35343 | 28.73080 | 25822 ft | 444 kts | 52° |
| 2026-04-29 14:38 | 54.37198 | 28.77348 | 26536 ft | 449 kts | 52° |
| 2026-04-29 14:38 | 54.39069 | 28.81660 | 27207 ft | 455 kts | 52° |
| 2026-04-29 14:38 | 54.40939 | 28.85977 | 27852 ft | 460 kts | 52° |
| 2026-04-29 14:39 | 54.42844 | 28.90383 | 28534 ft | 465 kts | 52° |
| 2026-04-29 14:39 | 54.44786 | 28.94883 | 29180 ft | 470 kts | 52° |
| 2026-04-29 14:39 | 54.46750 | 28.99443 | 29859 ft | 474 kts | 52° |
| 2026-04-29 14:39 | 54.48735 | 29.04061 | 30759 ft | 473 kts | 52° |
| 2026-04-29 14:40 | 54.50697 | 29.08632 | 31692 ft | 468 kts | 52° |
| 2026-04-29 14:40 | 54.52623 | 29.13130 | 32208 ft | 465 kts | 52° |
| 2026-04-29 14:40 | 54.54565 | 29.17674 | 32638 ft | 463 kts | 52° |
| 2026-04-29 14:40 | 54.56499 | 29.22205 | 32987 ft | 464 kts | 52° |
| 2026-04-29 14:41 | 54.58395 | 29.26656 | 33322 ft | 465 kts | 51° |
| 2026-04-29 14:41 | 54.60304 | 29.31145 | 33682 ft | 464 kts | 51° |
| 2026-04-29 14:41 | 54.62209 | 29.35634 | 34059 ft | 462 kts | 51° |
| 2026-04-29 14:41 | 54.64109 | 29.40118 | 34572 ft | 461 kts | 51° |
| 2026-04-29 14:42 | 54.66005 | 29.44599 | 34986 ft | 462 kts | 51° |
| 2026-04-29 14:42 | 54.67894 | 29.49071 | 35369 ft | 464 kts | 51° |
| 2026-04-29 14:42 | 54.69839 | 29.53456 | 35766 ft | 464 kts | 49° |
| 2026-04-29 14:42 | 54.71827 | 29.57852 | 36154 ft | 464 kts | 50° |
| 2026-04-29 14:43 | 54.73800 | 29.62222 | 36492 ft | 465 kts | 50° |
| 2026-04-29 14:43 | 54.75806 | 29.66682 | 36797 ft | 467 kts | 50° |
| 2026-04-29 14:43 | 54.77782 | 29.71090 | 37086 ft | 469 kts | 50° |
| 2026-04-29 14:43 | 54.79785 | 29.75568 | 37189 ft | 472 kts | 50° |
| 2026-04-29 14:44 | 54.81784 | 29.80048 | 37208 ft | 472 kts | 51° |
| 2026-04-29 14:44 | 54.85770 | 29.89015 | 37208 ft | 470 kts | 51° |
| 2026-04-29 14:45 | 54.89759 | 29.98024 | 37202 ft | 470 kts | 50° |
| 2026-04-29 14:45 | 54.93704 | 30.06967 | 37206 ft | 470 kts | 50° |
| 2026-04-29 14:46 | 54.97673 | 30.16000 | 37203 ft | 471 kts | 50° |
| 2026-04-29 14:46 | 55.01625 | 30.25028 | 37205 ft | 470 kts | 51° |
| 2026-04-29 14:47 | 55.05564 | 30.34058 | 37199 ft | 472 kts | 50° |
| 2026-04-29 14:47 | 55.09507 | 30.43132 | 37194 ft | 472 kts | 50° |
| 2026-04-29 14:48 | 55.13475 | 30.52296 | 37198 ft | 472 kts | 50° |
| 2026-04-29 14:48 | 55.17403 | 30.61401 | 37195 ft | 472 kts | 50° |
| 2026-04-29 14:49 | 55.21351 | 30.70588 | 37198 ft | 473 kts | 51° |
| 2026-04-29 14:49 | 55.25279 | 30.79764 | 37195 ft | 473 kts | 51° |
| 2026-04-29 14:50 | 55.28903 | 30.89388 | 37186 ft | 476 kts | 60° |
| 2026-04-29 14:50 | 55.31888 | 30.99664 | 37180 ft | 477 kts | 61° |
| 2026-04-29 14:51 | 55.34864 | 31.10034 | 37166 ft | 476 kts | 61° |
| 2026-04-29 14:51 | 55.37827 | 31.20408 | 37163 ft | 477 kts | 61° |
| 2026-04-29 14:52 | 55.40799 | 31.30863 | 37159 ft | 478 kts | 61° |
| 2026-04-29 14:52 | 55.43750 | 31.41295 | 37150 ft | 478 kts | 61° |
| 2026-04-29 14:53 | 55.46693 | 31.51747 | 37150 ft | 478 kts | 61° |
| 2026-04-29 14:53 | 55.49616 | 31.62177 | 37151 ft | 478 kts | 61° |
| 2026-04-29 14:54 | 55.52544 | 31.72670 | 37148 ft | 479 kts | 62° |
| 2026-04-29 14:54 | 55.55465 | 31.83190 | 37145 ft | 480 kts | 62° |
| 2026-04-29 14:55 | 55.58401 | 31.93807 | 37142 ft | 480 kts | 62° |
| 2026-04-29 14:55 | 55.61306 | 32.04366 | 37141 ft | 481 kts | 62° |
| 2026-04-29 14:56 | 55.64204 | 32.14943 | 37137 ft | 480 kts | 62° |
| 2026-04-29 14:56 | 55.67086 | 32.25515 | 37140 ft | 479 kts | 62° |
| 2026-04-29 14:57 | 55.69982 | 32.36187 | 37141 ft | 480 kts | 62° |
| 2026-04-29 14:57 | 55.72858 | 32.46831 | 37141 ft | 481 kts | 62° |
| 2026-04-29 14:58 | 55.75732 | 32.57519 | 37138 ft | 482 kts | 62° |
| 2026-04-29 14:58 | 55.78600 | 32.68240 | 37141 ft | 482 kts | 63° |
| 2026-04-29 14:59 | 55.81453 | 32.78951 | 37135 ft | 481 kts | 63° |
| 2026-04-29 14:59 | 55.84290 | 32.89652 | 37137 ft | 481 kts | 63° |
| 2026-04-29 15:00 | 55.87263 | 33.00279 | 37135 ft | 479 kts | 59° |
| 2026-04-29 15:00 | 55.90493 | 33.10659 | 37125 ft | 480 kts | 59° |
| 2026-04-29 15:01 | 55.93709 | 33.21098 | 37121 ft | 482 kts | 59° |
| 2026-04-29 15:01 | 55.96906 | 33.31570 | 37121 ft | 482 kts | 59° |
| 2026-04-29 15:02 | 56.00117 | 33.42156 | 37128 ft | 483 kts | 59° |
| 2026-04-29 15:02 | 56.03277 | 33.52634 | 37126 ft | 483 kts | 59° |
| 2026-04-29 15:03 | 56.06440 | 33.63176 | 37132 ft | 484 kts | 59° |
| 2026-04-29 15:03 | 56.09623 | 33.73837 | 37130 ft | 485 kts | 60° |
| 2026-04-29 15:04 | 56.12772 | 33.84430 | 37137 ft | 485 kts | 60° |
| 2026-04-29 15:04 | 56.15928 | 33.95098 | 37135 ft | 486 kts | 60° |
| 2026-04-29 15:05 | 56.19055 | 34.05719 | 37135 ft | 486 kts | 60° |
| 2026-04-29 15:05 | 56.22213 | 34.16494 | 37138 ft | 486 kts | 60° |
| 2026-04-29 15:06 | 56.25321 | 34.27146 | 37136 ft | 486 kts | 60° |
| 2026-04-29 15:06 | 56.28459 | 34.37953 | 37132 ft | 486 kts | 60° |
| 2026-04-29 15:07 | 56.31549 | 34.48644 | 37129 ft | 485 kts | 60° |
| 2026-04-29 15:07 | 56.34649 | 34.59397 | 37125 ft | 485 kts | 60° |
| 2026-04-29 15:08 | 56.37742 | 34.70173 | 37121 ft | 485 kts | 61° |
| 2026-04-29 15:08 | 56.40807 | 34.80901 | 37118 ft | 485 kts | 61° |
| 2026-04-29 15:09 | 56.43888 | 34.91735 | 37112 ft | 485 kts | 61° |
| 2026-04-29 15:09 | 56.46941 | 35.02541 | 37115 ft | 486 kts | 62° |
| 2026-04-29 15:10 | 56.49989 | 35.13430 | 37108 ft | 486 kts | 62° |
| 2026-04-29 15:10 | 56.53014 | 35.24285 | 37107 ft | 486 kts | 62° |
| 2026-04-29 15:11 | 56.56044 | 35.35209 | 37108 ft | 486 kts | 62° |
| 2026-04-29 15:11 | 56.59075 | 35.46162 | 37106 ft | 486 kts | 61° |
| 2026-04-29 15:12 | 56.62105 | 35.57072 | 37109 ft | 486 kts | 61° |
| 2026-04-29 15:12 | 56.65116 | 35.67984 | 37107 ft | 486 kts | 62° |
| 2026-04-29 15:13 | 56.68104 | 35.79052 | 37105 ft | 487 kts | 63° |
| 2026-04-29 15:13 | 56.71083 | 35.90026 | 37104 ft | 486 kts | 62° |
| 2026-04-29 15:14 | 56.74070 | 36.01046 | 37100 ft | 487 kts | 62° |
| 2026-04-29 15:14 | 56.77064 | 36.12153 | 37094 ft | 487 kts | 62° |
| 2026-04-29 15:15 | 56.80052 | 36.23291 | 37100 ft | 487 kts | 62° |
| 2026-04-29 15:15 | 56.83020 | 36.34408 | 37097 ft | 487 kts | 62° |
| 2026-04-29 15:16 | 56.85982 | 36.45537 | 37097 ft | 488 kts | 62° |
| 2026-04-29 15:16 | 56.88929 | 36.56668 | 37097 ft | 488 kts | 62° |
| 2026-04-29 15:17 | 56.91852 | 36.67793 | 37095 ft | 489 kts | 63° |
| 2026-04-29 15:17 | 56.94778 | 36.78996 | 37093 ft | 489 kts | 63° |
| 2026-04-29 15:18 | 56.97688 | 36.90190 | 37093 ft | 489 kts | 63° |
| 2026-04-29 15:18 | 57.00606 | 37.01461 | 37094 ft | 490 kts | 63° |
| 2026-04-29 15:19 | 57.03504 | 37.12707 | 37093 ft | 490 kts | 63° |
| 2026-04-29 15:19 | 57.06379 | 37.23923 | 37094 ft | 490 kts | 63° |
| 2026-04-29 15:20 | 57.09260 | 37.35219 | 37086 ft | 490 kts | 63° |
| 2026-04-29 15:20 | 57.12144 | 37.46584 | 37090 ft | 491 kts | 63° |
| 2026-04-29 15:21 | 57.15004 | 37.57915 | 37081 ft | 491 kts | 63° |
| 2026-04-29 15:21 | 57.17780 | 37.69382 | 37081 ft | 491 kts | 68° |
| 2026-04-29 15:22 | 57.20173 | 37.81171 | 37078 ft | 492 kts | 69° |
| 2026-04-29 15:22 | 57.22565 | 37.92977 | 37075 ft | 493 kts | 69° |
| 2026-04-29 15:23 | 57.24953 | 38.04757 | 37076 ft | 493 kts | 69° |
| 2026-04-29 15:23 | 57.27345 | 38.16584 | 37075 ft | 493 kts | 69° |
| 2026-04-29 15:24 | 57.29731 | 38.28427 | 37072 ft | 493 kts | 68° |
| 2026-04-29 15:24 | 57.32111 | 38.40321 | 37070 ft | 493 kts | 68° |
| 2026-04-29 15:25 | 57.34458 | 38.52143 | 37068 ft | 494 kts | 69° |
| 2026-04-29 15:25 | 57.36813 | 38.64076 | 37069 ft | 494 kts | 69° |
| 2026-04-29 15:26 | 57.39162 | 38.76046 | 37065 ft | 494 kts | 69° |
| 2026-04-29 15:26 | 57.41485 | 38.87955 | 37065 ft | 494 kts | 69° |
| 2026-04-29 15:27 | 57.43797 | 38.99879 | 37063 ft | 494 kts | 69° |
| 2026-04-29 15:27 | 57.46109 | 39.11879 | 37060 ft | 495 kts | 69° |
| 2026-04-29 15:28 | 57.48946 | 39.23358 | 37059 ft | 493 kts | 56° |
| 2026-04-29 15:28 | 57.53414 | 39.32925 | 37053 ft | 491 kts | 40° |
| 2026-04-29 15:29 | 57.58531 | 39.41239 | 37049 ft | 490 kts | 39° |
| 2026-04-29 15:30 | 57.68750 | 39.57938 | 37050 ft | 490 kts | 40° |
| 2026-04-29 15:30 | 57.73837 | 39.66327 | 37052 ft | 490 kts | 41° |
| 2026-04-29 15:31 | 57.78956 | 39.74810 | 37049 ft | 490 kts | 40° |
| 2026-04-29 15:31 | 57.84017 | 39.83234 | 37047 ft | 490 kts | 40° |
| 2026-04-29 15:32 | 57.89111 | 39.91761 | 37035 ft | 490 kts | 41° |
| 2026-04-29 15:32 | 57.94179 | 40.00342 | 37035 ft | 490 kts | 41° |
| 2026-04-29 15:33 | 57.99264 | 40.08986 | 37029 ft | 490 kts | 41° |
| 2026-04-29 15:33 | 58.04303 | 40.17583 | 37024 ft | 490 kts | 41° |
| 2026-04-29 15:34 | 58.09333 | 40.26201 | 37022 ft | 491 kts | 41° |
| 2026-04-29 15:34 | 58.14398 | 40.34910 | 37016 ft | 491 kts | 41° |
| 2026-04-29 15:35 | 58.19460 | 40.43613 | 37015 ft | 491 kts | 40° |
| 2026-04-29 15:35 | 58.24510 | 40.52242 | 37009 ft | 491 kts | 40° |
| 2026-04-29 15:36 | 58.29615 | 40.61004 | 37001 ft | 491 kts | 40° |
| 2026-04-29 15:36 | 58.34694 | 40.69759 | 36992 ft | 492 kts | 41° |
| 2026-04-29 15:37 | 58.39744 | 40.78502 | 36990 ft | 492 kts | 41° |
| 2026-04-29 15:37 | 58.44760 | 40.87220 | 36983 ft | 492 kts | 41° |
| 2026-04-29 15:38 | 58.49780 | 40.95983 | 36982 ft | 492 kts | 41° |
| 2026-04-29 15:38 | 58.54796 | 41.04772 | 36975 ft | 492 kts | 41° |
| 2026-04-29 15:39 | 58.59843 | 41.13655 | 36970 ft | 492 kts | 41° |
| 2026-04-29 15:39 | 58.64840 | 41.22485 | 36978 ft | 492 kts | 41° |
| 2026-04-29 15:40 | 58.69846 | 41.31366 | 36987 ft | 493 kts | 41° |
| 2026-04-29 15:40 | 58.74923 | 41.40411 | 36985 ft | 493 kts | 41° |
| 2026-04-29 15:41 | 58.80235 | 41.48751 | 36996 ft | 491 kts | 34° |
| 2026-04-29 15:41 | 58.85746 | 41.56555 | 36983 ft | 491 kts | 34° |
| 2026-04-29 15:42 | 58.91208 | 41.64330 | 36975 ft | 491 kts | 34° |
| 2026-04-29 15:42 | 58.96682 | 41.72164 | 36971 ft | 491 kts | 36° |
| 2026-04-29 15:43 | 59.02123 | 41.79987 | 36975 ft | 492 kts | 36° |
| 2026-04-29 15:43 | 59.07597 | 41.87893 | 36970 ft | 492 kts | 36° |
| 2026-04-29 15:44 | 59.13046 | 41.95796 | 36965 ft | 491 kts | 36° |
| 2026-04-29 15:44 | 59.18526 | 42.03777 | 36965 ft | 491 kts | 36° |
| 2026-04-29 15:45 | 59.23942 | 42.11698 | 36966 ft | 490 kts | 36° |
| 2026-04-29 15:45 | 59.29368 | 42.19666 | 36963 ft | 490 kts | 36° |
| 2026-04-29 15:46 | 59.34845 | 42.27741 | 36959 ft | 491 kts | 36° |
| 2026-04-29 15:46 | 59.39977 | 42.36549 | 36957 ft | 493 kts | 46° |
| 2026-04-29 15:47 | 59.44554 | 42.46423 | 36948 ft | 493 kts | 46° |
| 2026-04-29 15:47 | 59.49139 | 42.56412 | 36945 ft | 493 kts | 46° |
| 2026-04-29 15:48 | 59.53686 | 42.66363 | 36944 ft | 493 kts | 47° |
| 2026-04-29 15:48 | 59.58273 | 42.76447 | 36933 ft | 493 kts | 47° |
| 2026-04-29 15:49 | 59.62804 | 42.86456 | 36932 ft | 493 kts | 47° |
| 2026-04-29 15:49 | 59.67358 | 42.96557 | 36921 ft | 493 kts | 47° |
| 2026-04-29 15:50 | 59.71893 | 43.06661 | 36924 ft | 493 kts | 47° |
| 2026-04-29 15:50 | 59.76400 | 43.16741 | 36928 ft | 493 kts | 47° |
| 2026-04-29 15:51 | 59.80956 | 43.26938 | 36920 ft | 494 kts | 47° |
| 2026-04-29 15:51 | 59.85477 | 43.37104 | 36923 ft | 494 kts | 47° |
| 2026-04-29 15:52 | 59.89997 | 43.47315 | 36922 ft | 493 kts | 47° |
| 2026-04-29 15:52 | 59.94485 | 43.57499 | 36917 ft | 493 kts | 47° |
| 2026-04-29 15:53 | 59.99006 | 43.67784 | 36915 ft | 494 kts | 47° |
| 2026-04-29 15:53 | 60.03496 | 43.78038 | 36908 ft | 493 kts | 48° |
| 2026-04-29 15:54 | 60.08022 | 43.88420 | 36907 ft | 494 kts | 48° |
| 2026-04-29 15:54 | 60.12518 | 43.98783 | 36907 ft | 494 kts | 48° |
| 2026-04-29 15:55 | 60.17012 | 44.09187 | 36906 ft | 495 kts | 48° |
| 2026-04-29 15:55 | 60.21495 | 44.19614 | 36910 ft | 495 kts | 48° |
| 2026-04-29 15:56 | 60.25959 | 44.30044 | 36905 ft | 494 kts | 48° |
| 2026-04-29 15:56 | 60.30409 | 44.40486 | 36897 ft | 494 kts | 48° |
| 2026-04-29 15:57 | 60.34860 | 44.50983 | 36893 ft | 495 kts | 48° |
| 2026-04-29 15:57 | 60.39301 | 44.61501 | 36891 ft | 494 kts | 48° |
| 2026-04-29 15:58 | 60.43745 | 44.72078 | 36888 ft | 494 kts | 49° |
| 2026-04-29 15:58 | 60.48173 | 44.82663 | 36886 ft | 494 kts | 49° |
| 2026-04-29 15:59 | 60.52596 | 44.93288 | 36880 ft | 494 kts | 49° |
| 2026-04-29 15:59 | 60.56982 | 45.03869 | 36875 ft | 494 kts | 49° |
| 2026-04-29 16:00 | 60.61402 | 45.14584 | 36870 ft | 496 kts | 49° |
| 2026-04-29 16:00 | 60.65777 | 45.25239 | 36868 ft | 495 kts | 49° |
| 2026-04-29 16:01 | 60.70181 | 45.36013 | 36868 ft | 495 kts | 49° |
| 2026-04-29 16:01 | 60.74562 | 45.46775 | 36863 ft | 495 kts | 49° |
| 2026-04-29 16:02 | 60.78944 | 45.57509 | 36858 ft | 495 kts | 49° |
| 2026-04-29 16:02 | 60.83319 | 45.68269 | 36854 ft | 495 kts | 50° |
| 2026-04-29 16:03 | 60.87724 | 45.79160 | 36852 ft | 496 kts | 50° |
| 2026-04-29 16:03 | 60.92082 | 45.89987 | 36838 ft | 496 kts | 50° |
| 2026-04-29 16:04 | 60.96464 | 46.00927 | 36827 ft | 495 kts | 50° |
| 2026-04-29 16:04 | 61.00819 | 46.11850 | 36824 ft | 496 kts | 50° |
| 2026-04-29 16:05 | 61.05138 | 46.22751 | 36820 ft | 495 kts | 50° |
| 2026-04-29 16:05 | 61.09438 | 46.33833 | 36826 ft | 496 kts | 50° |
| 2026-04-29 16:06 | 61.13727 | 46.44948 | 36836 ft | 496 kts | 50° |
| 2026-04-29 16:06 | 61.17993 | 46.56049 | 36839 ft | 496 kts | 50° |
| 2026-04-29 16:07 | 61.22260 | 46.67205 | 36831 ft | 496 kts | 51° |
| 2026-04-29 16:07 | 61.26529 | 46.78434 | 36830 ft | 496 kts | 51° |
| 2026-04-29 16:08 | 61.30738 | 46.89579 | 36822 ft | 495 kts | 51° |
| 2026-04-29 16:08 | 61.34969 | 47.00837 | 36816 ft | 495 kts | 51° |
| 2026-04-29 16:09 | 61.39177 | 47.12089 | 36814 ft | 496 kts | 51° |
| 2026-04-29 16:09 | 61.43394 | 47.23420 | 36814 ft | 496 kts | 51° |
| 2026-04-29 16:10 | 61.47610 | 47.34813 | 36803 ft | 496 kts | 51° |
| 2026-04-29 16:10 | 61.51786 | 47.46157 | 36800 ft | 496 kts | 51° |
| 2026-04-29 16:11 | 61.55969 | 47.57594 | 36788 ft | 497 kts | 51° |
| 2026-04-29 16:11 | 61.60134 | 47.69061 | 36785 ft | 497 kts | 52° |
| 2026-04-29 16:12 | 61.64314 | 47.80629 | 36785 ft | 497 kts | 52° |
| 2026-04-29 16:12 | 61.68462 | 47.92161 | 36780 ft | 497 kts | 52° |
| 2026-04-29 16:13 | 61.72593 | 48.03705 | 36773 ft | 497 kts | 52° |
| 2026-04-29 16:13 | 61.76740 | 48.15351 | 36774 ft | 498 kts | 52° |
| 2026-04-29 16:14 | 61.80866 | 48.26998 | 36772 ft | 497 kts | 52° |
| 2026-04-29 16:14 | 61.84967 | 48.38634 | 36773 ft | 498 kts | 52° |
| 2026-04-29 16:15 | 61.89089 | 48.50388 | 36773 ft | 498 kts | 52° |
| 2026-04-29 16:15 | 61.93184 | 48.62127 | 36770 ft | 499 kts | 52° |
| 2026-04-29 16:16 | 61.97277 | 48.73917 | 36769 ft | 499 kts | 53° |
| 2026-04-29 16:16 | 62.01392 | 48.85833 | 36759 ft | 499 kts | 53° |
| 2026-04-29 16:17 | 62.05468 | 48.97700 | 36767 ft | 499 kts | 53° |
| 2026-04-29 16:17 | 62.09528 | 49.09579 | 36761 ft | 500 kts | 53° |
| 2026-04-29 16:18 | 62.13612 | 49.21547 | 36747 ft | 500 kts | 53° |
| 2026-04-29 16:18 | 62.17680 | 49.33481 | 36743 ft | 500 kts | 53° |
| 2026-04-29 16:19 | 62.21751 | 49.45490 | 36736 ft | 500 kts | 53° |
| 2026-04-29 16:19 | 62.25815 | 49.57542 | 36732 ft | 501 kts | 53° |
| 2026-04-29 16:20 | 62.29858 | 49.69596 | 36729 ft | 501 kts | 54° |
| 2026-04-29 16:20 | 62.33897 | 49.81705 | 36727 ft | 501 kts | 54° |
| 2026-04-29 16:21 | 62.37944 | 49.93901 | 36725 ft | 501 kts | 54° |
| 2026-04-29 16:21 | 62.41981 | 50.06131 | 36737 ft | 502 kts | 54° |
| 2026-04-29 16:22 | 62.45982 | 50.18317 | 36740 ft | 500 kts | 54° |
| 2026-04-29 16:22 | 62.49966 | 50.30519 | 36732 ft | 501 kts | 54° |
| 2026-04-29 16:23 | 62.53972 | 50.42852 | 36734 ft | 501 kts | 54° |
| 2026-04-29 16:23 | 62.57963 | 50.55106 | 36733 ft | 501 kts | 54° |
| 2026-04-29 16:24 | 62.61956 | 50.67342 | 36738 ft | 502 kts | 55° |
| 2026-04-29 16:24 | 62.65971 | 50.79716 | 36734 ft | 502 kts | 55° |
| 2026-04-29 16:25 | 62.69957 | 50.92072 | 36732 ft | 502 kts | 55° |
| 2026-04-29 16:25 | 62.73945 | 51.04500 | 36733 ft | 503 kts | 55° |
| 2026-04-29 16:26 | 62.77908 | 51.16982 | 36731 ft | 503 kts | 55° |
| 2026-04-29 16:26 | 62.81874 | 51.29564 | 36729 ft | 503 kts | 55° |
| 2026-04-29 16:27 | 62.85804 | 51.42096 | 36727 ft | 504 kts | 55° |
| 2026-04-29 16:27 | 62.89742 | 51.54726 | 36723 ft | 503 kts | 55° |
| 2026-04-29 16:28 | 62.93660 | 51.67357 | 36724 ft | 503 kts | 56° |
| 2026-04-29 16:28 | 62.97552 | 51.79978 | 36719 ft | 504 kts | 56° |
| 2026-04-29 16:29 | 63.01459 | 51.92717 | 36704 ft | 504 kts | 56° |
| 2026-04-29 16:29 | 63.05341 | 52.05444 | 36706 ft | 504 kts | 56° |
| 2026-04-29 16:30 | 63.09235 | 52.18281 | 36714 ft | 504 kts | 56° |
| 2026-04-29 16:30 | 63.13105 | 52.31115 | 36713 ft | 505 kts | 56° |
| 2026-04-29 16:31 | 63.16973 | 52.44013 | 36713 ft | 504 kts | 56° |
| 2026-04-29 16:31 | 63.17595 | 52.46095 | 36711 ft | 504 kts | 56° |